Impacts TAF Board
For situational awareness. Not to be used for flight planning purposes.
IDs:

KSAT - San Antonio Intl, TX, US

Issued at 1720 UTC 21 May 2022
Updated at 2256 UTC 21 May 2022
Potential Impact None Slight Moderate High
Time2251Z 21/23Z 22/00Z 22/01Z 22/02Z 22/03Z 22/04Z 22/05Z 22/06Z 22/07Z 22/08Z 22/09Z 22/10Z 22/11Z>>
Type OBS PRVL PRVL PRVL PRVL PRVL PRVL PRVL PRVL PRVL PRVL PRVL PRVL PRVL
VIS 10 >6 >6 >6 >6 >6 >6 >6 >6 >6 >6 >6 >6 >6
CIG 180 -- -- 50 50 50 50 50 50 15 15 15 15 15
Cover BKN SCT SCT BKN BKN BKN BKN BKN BKN OVC OVC OVC OVC OVC
FltCat VFR VFR VFR VFR VFR VFR VFR VFR VFR MVFR MVFR MVFR MVFR MVFR
WX -- -- -- -SHRA VCTS -SHRA VCTS -SHRA VCTS -SHRA VCTS -SHRA VCTS -SHRA VCTS VCSH VCSH VCSH VCSH VCSH
WDir 90 140 140 80 80 80 80 80 80 30 30 30 30 30
WSpd 8 11 11 12 12 12 12 12 12 14 14 14 14 14
WGst -- -- -- -- -- -- -- -- -- -- -- -- -- --
WSHgt -- -- -- -- -- -- -- -- -- -- -- -- -- --
WSDir -- -- -- -- -- -- -- -- -- -- -- -- -- --
WSSpd -- -- -- -- -- -- -- -- -- -- -- -- -- --
Raw TAF
KSAT 211720Z 2118/2224 14011KT P6SM SCT050 SCT100
  FM220100 08012KT P6SM -SHRA VCTS BKN050CB
  FM220700 03014KT P6SM VCSH OVC015
  FM221600 03012KT P6SM BKN025
  FM221800 06009KT P6SM BKN035


Raw METAR
KSAT 212251Z 09008KT 10SM FEW080 BKN180 BKN250 37/19 A2979 RMK AO2 SLP067 T03670194 $
KSAT 212151Z 13007KT 10SM FEW080 FEW250 37/18 A2977 RMK AO2 SLP061 T03720183 $
KSAT 212051Z 16012G18KT 10SM FEW080 FEW150 37/18 A2979 RMK AO2 SLP068 T03720183 58017 $
KSAT 211951Z 14011G20KT 110V200 10SM FEW070 FEW150 36/20 A2981 RMK AO2 SLP074 T03610200 $

METAR Board
Radar Display
Forecast Discussion
For situational awareness. Not to be used for flight planning purposes.